Terminal Aerodrome Forecast
Issued by NWS Cleveland, OH

Home | Current Version | Previous Version | Graphics & Text | Print | Product List | Glossary Off
Versions: 1 2 3 4 5 6 7 8 9 10 11 12 13 14 15 16 17 18 19

457
FTUS41 KCLE 162320
TAFMFD
TAF
KMFD 162320Z 1700/1724 21005KT P6SM SKC
     FM171000 20005KT 5SM BR SCT025 BKN150
      TEMPO 1710/1713 3SM BR BKN025
     FM171500 19006KT P6SM BKN150
     FM172000 20007KT 5SM BR OVC050
     FM172300 20008KT 4SM BR OVC015=

USA.gov is the U.S. government's official web portal to all federal, state and local government web resources and services.